Time;durP1;ratioP1;P1;durP2;ratioP2;P2;SDS_P1;SDS_P2;PMS_P1;PMS_P2;Temp;Humidity;BMP_temperature;BMP_pressure;BME280_temperature;BME280_humidity;BME280_pressure;Samples;Min_cycle;Max_cycle;Signal;HPM_P1;HPM_P2
2022/04/05 00:03:23;;;;;;;3.58;2.20;;;6.10;99.90;;;;;;10419360;28;20072;-91
2022/04/05 00:08:26;;;;;;;5.22;2.55;;;6.10;99.90;;;;;;10441380;28;20076;-90
2022/04/05 00:13:28;;;;;;;3.97;2.40;;;6.10;99.90;;;;;;10467917;28;20072;-90
2022/04/05 00:18:30;;;;;;;4.40;2.00;;;6.10;99.90;;;;;;10455392;28;20075;-91
2022/04/05 00:23:32;;;;;;;3.63;2.65;;;6.20;99.90;;;;;;10451889;28;20049;-90
2022/04/05 00:28:34;;;;;;;3.28;2.28;;;6.20;99.90;;;;;;10405798;28;20098;-90
2022/04/05 00:33:36;;;;;;;2.13;1.33;;;6.10;99.90;;;;;;10437733;28;20140;-91
2022/04/05 00:38:37;;;;;;;5.18;2.50;;;6.10;99.90;;;;;;10390459;28;20056;-90
2022/04/05 00:43:40;;;;;;;5.00;2.13;;;6.10;99.90;;;;;;10401716;28;20056;-90
2022/04/05 00:48:55;;;;;;;5.80;3.15;;;6.00;99.90;;;;;;10393149;28;20055;-90
2022/04/05 00:54:03;;;;;;;5.25;2.67;;;5.90;99.90;;;;;;10414270;28;20388;-90
2022/04/05 00:59:07;;;;;;;5.70;2.60;;;5.90;99.90;;;;;;10414307;28;20469;-90
2022/04/05 01:04:11;;;;;;;6.50;2.85;;;5.90;99.90;;;;;;10454740;28;20049;-90
2022/04/05 01:09:13;;;;;;;7.68;2.45;;;5.80;99.90;;;;;;10419150;28;20052;-90
2022/04/05 01:14:15;;;;;;;6.43;2.95;;;5.80;99.90;;;;;;10418599;28;20045;-90
2022/04/05 01:19:17;;;;;;;4.57;2.83;;;5.80;99.90;;;;;;10407036;28;20539;-90
2022/04/05 01:24:19;;;;;;;5.82;3.00;;;5.90;99.90;;;;;;10399917;28;20063;-90
2022/04/05 01:29:26;;;;;;;3.30;2.15;;;5.90;99.90;;;;;;10430961;28;20052;-90
2022/04/05 01:34:31;;;;;;;6.82;2.53;;;5.90;99.90;;;;;;10409699;28;20079;-90
2022/04/05 01:39:35;;;;;;;3.45;1.85;;;6.00;99.90;;;;;;10389381;28;20509;-90
2022/04/05 01:44:38;;;;;;;4.00;2.28;;;6.00;99.90;;;;;;10444276;28;20067;-90
2022/04/05 01:49:42;;;;;;;4.90;2.30;;;6.00;99.90;;;;;;10408654;28;20060;-91
2022/04/05 01:54:43;;;;;;;6.75;2.50;;;6.00;99.90;;;;;;10414846;28;20041;-90
2022/04/05 01:59:45;;;;;;;3.40;2.33;;;6.00;99.90;;;;;;10433362;28;20508;-90
2022/04/05 02:04:47;;;;;;;3.10;2.22;;;6.00;99.90;;;;;;10411720;28;20059;-90
2022/04/05 02:09:49;;;;;;;5.82;4.03;;;5.90;99.90;;;;;;10426447;28;20048;-91
2022/04/05 02:14:51;;;;;;;5.20;3.22;;;5.90;99.90;;;;;;10429811;28;20135;-90
2022/04/05 02:19:55;;;;;;;4.75;2.08;;;5.90;99.90;;;;;;10420200;28;20045;-90
2022/04/05 02:24:57;;;;;;;5.15;2.78;;;5.90;99.90;;;;;;10457609;28;20047;-89
2022/04/05 02:29:59;;;;;;;4.88;2.72;;;5.90;99.90;;;;;;10454561;28;20053;-90
2022/04/05 02:35:01;;;;;;;4.63;2.35;;;5.90;99.90;;;;;;10417412;28;20388;-90
2022/04/05 02:40:03;;;;;;;2.83;1.90;;;6.00;99.90;;;;;;10419869;28;20077;-90
2022/04/05 02:45:06;;;;;;;3.90;2.10;;;6.00;99.90;;;;;;10428657;28;20049;-91
2022/04/05 02:50:08;;;;;;;4.03;2.08;;;6.00;99.90;;;;;;10425057;28;20049;-90
2022/04/05 02:55:10;;;;;;;3.47;1.80;;;6.00;99.90;;;;;;10441142;28;20036;-90
2022/04/05 03:00:15;;;;;;;3.63;1.90;;;6.00;99.90;;;;;;10418615;28;20487;-91
2022/04/05 03:05:21;;;;;;;3.00;1.92;;;6.10;99.90;;;;;;10422406;28;20045;-89
2022/04/05 03:10:23;;;;;;;3.00;1.85;;;6.10;99.90;;;;;;10421175;28;20060;-90
2022/04/05 03:15:25;;;;;;;3.85;2.10;;;6.00;99.90;;;;;;10443533;28;20180;-90
2022/04/05 03:20:27;;;;;;;4.63;1.50;;;6.00;99.90;;;;;;10461964;28;20045;-89
2022/04/05 03:25:29;;;;;;;4.60;2.03;;;6.10;99.90;;;;;;10422618;28;20113;-89
2022/04/05 03:30:31;;;;;;;3.83;1.73;;;6.00;99.90;;;;;;10400086;28;20048;-89
2022/04/05 03:35:33;;;;;;;2.45;1.52;;;6.10;99.90;;;;;;10437209;28;20044;-90
2022/04/05 03:40:35;;;;;;;3.92;2.00;;;6.10;99.90;;;;;;10458126;28;20055;-91
2022/04/05 03:45:37;;;;;;;3.35;1.58;;;6.00;99.90;;;;;;10442375;28;20056;-90
2022/04/05 03:50:39;;;;;;;4.07;1.70;;;6.00;99.90;;;;;;10438727;28;20045;-89
2022/04/05 03:55:42;;;;;;;4.75;1.75;;;6.10;99.90;;;;;;10431442;28;20486;-90
2022/04/05 04:00:44;;;;;;;4.43;1.40;;;6.10;99.90;;;;;;10458665;28;20115;-90
2022/04/05 04:05:46;;;;;;;3.50;1.60;;;6.20;99.90;;;;;;10429737;28;20048;-90
2022/04/05 04:10:48;;;;;;;3.40;1.63;;;6.20;99.90;;;;;;10439085;28;20059;-90
2022/04/05 04:15:50;;;;;;;2.78;1.45;;;6.20;99.90;;;;;;10446361;28;20047;-91
2022/04/05 04:20:53;;;;;;;3.97;0.82;;;6.20;99.90;;;;;;10443709;28;20068;-89
2022/04/05 04:25:54;;;;;;;3.38;1.48;;;6.20;99.90;;;;;;10449025;28;20045;-91
2022/04/05 04:30:56;;;;;;;2.58;0.88;;;6.20;99.90;;;;;;10424843;28;20033;-91
2022/04/05 04:35:58;;;;;;;2.65;1.23;;;6.20;99.90;;;;;;10414248;28;20479;-92
2022/04/05 04:41:01;;;;;;;3.92;1.52;;;6.20;99.90;;;;;;10424742;28;20044;-94
2022/04/05 04:46:06;;;;;;;1.98;1.30;;;6.20;99.90;;;;;;10408740;28;20056;-92
2022/04/05 04:51:08;;;;;;;2.88;1.55;;;6.30;99.90;;;;;;10391281;28;20052;-92
2022/04/05 04:56:53;;;;;;;3.30;1.38;;;6.30;99.90;;;;;;10421121;28;20099;-94
2022/04/05 05:02:23;;;;;;;4.45;0.93;;;6.30;99.90;;;;;;10352527;28;20045;-93
2022/04/05 05:07:25;;;;;;;2.45;1.50;;;6.40;99.90;;;;;;10401166;22;20585;-61
2022/04/05 05:12:26;;;;;;;2.25;1.45;;;6.40;99.90;;;;;;10297309;28;20047;-61
2022/04/05 05:17:29;;;;;;;3.13;1.55;;;6.40;99.90;;;;;;10299931;28;20100;-62
2022/04/05 05:22:30;;;;;;;2.80;1.30;;;6.50;99.90;;;;;;10303866;28;20109;-61
2022/04/05 05:27:32;;;;;;;4.43;1.30;;;6.50;99.90;;;;;;10300574;28;20054;-60
2022/04/05 05:32:49;;;;;;;4.03;1.77;;;6.50;99.90;;;;;;10298382;28;20058;-60
2022/04/05 05:37:51;;;;;;;2.87;1.80;;;6.50;99.90;;;;;;10296562;28;20047;-61
2022/04/05 05:43:03;;;;;;;2.53;1.75;;;6.50;99.90;;;;;;10295633;28;20046;-63
2022/04/05 05:48:06;;;;;;;3.25;1.83;;;6.50;99.90;;;;;;10295408;28;20128;-63
2022/04/05 05:53:08;;;;;;;4.70;2.20;;;6.60;99.90;;;;;;10297424;28;20050;-62
2022/04/05 05:58:10;;;;;;;2.75;1.67;;;6.60;99.90;;;;;;10290104;28;20057;-60
2022/04/05 06:03:12;;;;;;;3.00;1.63;;;6.60;99.90;;;;;;10293038;28;20049;-63
2022/04/05 06:08:14;;;;;;;2.80;1.85;;;6.60;99.90;;;;;;10285597;28;20070;-61
2022/04/05 06:13:16;;;;;;;2.30;1.75;;;6.60;99.90;;;;;;10294016;28;20062;-62
2022/04/05 06:18:19;;;;;;;2.88;1.75;;;6.70;99.90;;;;;;10286051;28;20437;-62
2022/04/05 06:23:21;;;;;;;3.85;1.80;;;6.70;99.90;;;;;;10285500;28;20046;-60
2022/04/05 06:28:23;;;;;;;3.38;1.75;;;6.70;99.90;;;;;;10287790;28;20508;-61
2022/04/05 06:33:25;;;;;;;3.25;2.10;;;6.70;99.90;;;;;;10295316;28;20054;-60
2022/04/05 06:38:28;;;;;;;5.68;2.40;;;6.70;99.90;;;;;;10291686;28;20137;-59
2022/04/05 06:43:34;;;;;;;3.80;1.80;;;6.70;99.90;;;;;;10292191;28;20043;-60
2022/04/05 06:48:35;;;;;;;3.10;1.85;;;6.70;99.90;;;;;;10300152;28;20383;-60
2022/04/05 06:53:38;;;;;;;4.28;2.08;;;6.70;99.90;;;;;;10301073;28;20046;-60
2022/04/05 06:58:40;;;;;;;5.43;2.30;;;6.80;99.90;;;;;;10297086;28;20113;-60
2022/04/05 07:03:41;;;;;;;3.30;1.38;;;6.80;99.90;;;;;;10300423;28;20480;-61
2022/04/05 07:08:43;;;;;;;4.43;1.60;;;6.80;99.90;;;;;;10297330;28;20126;-62
2022/04/05 07:13:45;;;;;;;3.30;1.75;;;6.90;99.90;;;;;;10297524;28;20689;-59
2022/04/05 07:18:46;;;;;;;2.67;1.55;;;6.90;99.90;;;;;;10297456;28;20055;-60
2022/04/05 07:23:48;;;;;;;3.33;2.22;;;7.00;99.90;;;;;;10294547;28;20341;-62
2022/04/05 07:28:50;;;;;;;3.80;1.17;;;7.00;99.90;;;;;;10295303;28;20070;-62
2022/04/05 07:33:52;;;;;;;2.90;2.13;;;7.00;99.90;;;;;;10301653;28;20046;-63
2022/04/05 07:38:53;;;;;;;2.72;1.45;;;7.10;99.90;;;;;;10294132;28;20054;-62
2022/04/05 07:43:55;;;;;;;2.33;1.65;;;7.00;99.90;;;;;;10300540;28;20468;-62
2022/04/05 07:48:56;;;;;;;3.38;2.28;;;7.00;99.90;;;;;;10292607;28;20286;-63
2022/04/05 07:53:58;;;;;;;2.17;1.27;;;7.20;99.90;;;;;;10298364;28;20839;-63
2022/04/05 07:59:02;;;;;;;3.88;1.55;;;7.20;99.90;;;;;;10295559;28;20112;-63
2022/04/05 08:04:04;;;;;;;3.55;1.55;;;7.30;99.90;;;;;;10302058;28;20049;-63
2022/04/05 08:09:06;;;;;;;4.15;1.33;;;7.40;99.90;;;;;;10297366;28;20054;-63
2022/04/05 08:14:07;;;;;;;2.35;1.30;;;7.50;99.90;;;;;;10295555;28;20397;-63
2022/04/05 08:19:09;;;;;;;1.67;1.15;;;7.60;99.90;;;;;;10300710;28;20129;-64
2022/04/05 08:24:11;;;;;;;4.38;0.95;;;7.80;99.90;;;;;;10297436;28;20057;-60
2022/04/05 08:29:13;;;;;;;1.63;1.00;;;7.80;99.90;;;;;;10298300;28;20086;-61
2022/04/05 08:34:15;;;;;;;2.40;0.98;;;8.00;99.90;;;;;;10297182;28;20502;-61
2022/04/05 08:39:17;;;;;;;1.77;1.02;;;8.00;99.90;;;;;;10295226;28;20066;-60
2022/04/05 08:44:19;;;;;;;1.23;0.88;;;8.00;99.90;;;;;;10290957;28;20050;-60
2022/04/05 08:49:21;;;;;;;1.25;0.88;;;8.10;99.90;;;;;;10299278;28;20047;-63
2022/04/05 08:54:23;;;;;;;1.83;1.05;;;8.20;99.90;;;;;;10294137;28;20050;-64
2022/04/05 08:59:30;;;;;;;2.58;0.90;;;8.20;99.90;;;;;;10292889;28;20065;-63
2022/04/05 09:04:35;;;;;;;1.55;0.80;;;8.30;99.90;;;;;;10295925;28;20057;-64
2022/04/05 09:09:38;;;;;;;1.80;0.88;;;8.50;99.90;;;;;;10293597;28;20125;-62
2022/04/05 09:14:43;;;;;;;1.90;0.95;;;8.50;99.90;;;;;;10293992;28;20055;-64
2022/04/05 09:19:45;;;;;;;1.58;0.60;;;8.60;99.90;;;;;;10284067;28;20495;-65
2022/04/05 09:24:47;;;;;;;1.38;0.70;;;8.60;99.90;;;;;;10294784;28;20578;-65
2022/04/05 09:29:51;;;;;;;1.00;0.65;;;8.70;99.90;;;;;;10291062;28;20046;-65
2022/04/05 09:34:54;;;;;;;1.20;0.80;;;8.60;99.90;;;;;;10295560;28;20052;-64
2022/04/05 09:40:20;;;;;;;1.05;0.60;;;8.90;99.90;;;;;;10295611;28;20054;-66
2022/04/05 09:45:48;;;;;;;2.92;1.00;;;9.10;99.90;;;;;;10295106;28;20057;-65
2022/04/05 09:51:11;;;;;;;2.17;0.70;;;9.20;99.90;;;;;;10291642;28;20059;-66
2022/04/05 09:56:26;;;;;;;1.30;0.60;;;9.50;99.90;;;;;;10293586;28;20054;-65
2022/04/05 10:01:33;;;;;;;1.70;0.50;;;9.60;99.90;;;;;;10299059;28;20104;-66
2022/04/05 10:06:43;;;;;;;2.72;0.68;;;9.70;99.90;;;;;;10297810;28;20442;-65
2022/04/05 10:11:46;;;;;;;1.30;0.70;;;9.90;99.90;;;;;;10297749;28;20058;-64
2022/04/05 10:16:49;;;;;;;0.60;0.50;;;10.00;99.90;;;;;;10298004;28;20153;-64
2022/04/05 10:21:51;;;;;;;0.88;0.40;;;10.20;99.90;;;;;;10296568;28;20042;-64
2022/04/05 10:26:53;;;;;;;2.45;0.60;;;10.30;99.90;;;;;;10293999;28;20065;-65
2022/04/05 10:32:07;;;;;;;2.15;0.50;;;10.60;99.90;;;;;;10291228;28;20109;-64
2022/04/05 10:37:09;;;;;;;0.95;0.57;;;10.90;99.90;;;;;;10290954;28;20108;-63
2022/04/05 10:42:11;;;;;;;1.50;0.60;;;11.20;99.90;;;;;;10290890;28;20137;-64
2022/04/05 10:47:14;;;;;;;0.73;0.40;;;11.60;99.90;;;;;;10290744;28;20486;-65
2022/04/05 10:52:36;;;;;;;0.55;0.50;;;11.60;99.90;;;;;;10293486;28;20050;-65
2022/04/05 10:57:39;;;;;;;0.88;0.50;;;11.90;99.60;;;;;;10289881;28;20058;-66
2022/04/05 11:03:02;;;;;;;0.85;0.50;;;12.10;97.20;;;;;;10290710;28;20043;-66
2022/04/05 11:08:11;;;;;;;0.57;0.30;;;12.40;96.70;;;;;;10291498;28;20069;-64
2022/04/05 11:13:18;;;;;;;0.70;0.50;;;12.50;97.80;;;;;;10290441;28;20046;-64
2022/04/05 11:18:21;;;;;;;;;;;12.50;94.10;;;;;;10291392;28;20038;-65
2022/04/05 11:23:42;;;;;;;0.90;0.55;;;12.40;94.60;;;;;;10293120;28;19926;-64
2022/04/05 11:28:47;;;;;;;3.38;0.60;;;12.40;94.70;;;;;;10295861;28;20070;-64
2022/04/05 11:33:49;;;;;;;0.95;0.80;;;12.10;96.40;;;;;;10302410;28;20049;-65
2022/04/05 11:38:57;;;;;;;0.60;0.40;;;11.90;97.20;;;;;;10303410;28;20047;-65
2022/04/05 11:44:01;;;;;;;1.00;0.50;;;11.80;98.50;;;;;;10300619;28;20054;-65
2022/04/05 11:49:04;;;;;;;1.77;0.90;;;11.60;99.90;;;;;;10301247;28;20058;-64
2022/04/05 11:54:11;;;;;;;1.33;0.60;;;11.50;99.90;;;;;;10297522;28;20045;-65
2022/04/05 11:59:15;;;;;;;1.45;0.60;;;11.50;99.90;;;;;;10305673;28;20054;-64
2022/04/05 12:04:20;;;;;;;3.13;0.52;;;11.40;99.90;;;;;;10296088;28;20473;-65
2022/04/05 12:09:24;;;;;;;0.80;0.50;;;11.50;99.90;;;;;;10295198;28;20055;-65
2022/04/05 12:14:29;;;;;;;3.42;0.70;;;11.50;99.90;;;;;;10296239;28;20050;-65
2022/04/05 12:19:34;;;;;;;3.05;0.57;;;11.60;99.90;;;;;;10302702;28;20396;-66
2022/04/05 12:24:42;;;;;;;1.92;0.60;;;11.60;99.90;;;;;;10296169;28;20046;-65
2022/04/05 12:29:44;;;;;;;0.80;0.47;;;11.70;99.90;;;;;;10294552;28;20046;-65
2022/04/05 12:34:52;;;;;;;1.13;0.60;;;11.90;99.90;;;;;;10296055;28;20042;-66
2022/04/05 12:39:55;;;;;;;1.70;0.50;;;12.00;99.10;;;;;;10301764;28;20050;-66
2022/04/05 12:44:58;;;;;;;0.98;0.50;;;12.20;98.30;;;;;;10295435;28;20054;-65
2022/04/05 12:50:04;;;;;;;0.95;0.60;;;12.60;96.10;;;;;;10297121;28;20062;-65
2022/04/05 12:55:17;;;;;;;1.17;0.50;;;12.70;94.30;;;;;;10289856;28;20050;-65
2022/04/05 13:00:26;;;;;;;1.10;0.50;;;12.80;94.10;;;;;;10291397;28;20050;-65
2022/04/05 13:10:49;;;;;;;1.27;0.50;;;12.70;94.10;;;;;;10293740;28;20046;-66
2022/04/05 13:16:05;;;;;;;1.25;0.52;;;12.50;95.10;;;;;;10295486;28;20047;-66
2022/04/05 13:21:10;;;;;;;3.05;1.33;;;12.30;95.90;;;;;;10292838;28;20058;-65
2022/04/05 13:26:20;;;;;;;1.77;1.13;;;12.00;97.80;;;;;;10291485;28;20437;-65
2022/04/05 13:31:22;;;;;;;1.30;0.80;;;11.90;98.90;;;;;;10289509;28;20054;-64
2022/04/05 13:36:24;;;;;;;3.08;1.13;;;11.70;99.90;;;;;;10290266;28;20054;-65
2022/04/05 13:41:25;;;;;;;2.25;1.35;;;11.70;99.90;;;;;;10291219;28;21950;-64
2022/04/05 13:46:28;;;;;;;3.88;1.80;;;11.50;99.90;;;;;;10297722;28;20447;-65
2022/04/05 13:51:30;;;;;;;3.58;2.05;;;11.30;99.90;;;;;;10288075;28;20038;-65
2022/04/05 13:56:44;;;;;;;3.47;1.92;;;10.90;99.90;;;;;;10296508;28;20046;-64
2022/04/05 14:01:46;;;;;;;7.45;2.40;;;10.80;99.90;;;;;;10289528;28;20080;-65
2022/04/05 14:06:48;;;;;;;4.82;2.38;;;10.80;99.90;;;;;;10295168;28;20042;-64
2022/04/05 14:11:50;;;;;;;4.35;2.38;;;10.80;99.90;;;;;;10294915;28;20061;-66
2022/04/05 14:16:52;;;;;;;5.50;2.88;;;10.70;99.90;;;;;;10291075;28;20042;-65
2022/04/05 14:21:55;;;;;;;6.60;3.22;;;10.70;99.90;;;;;;10296091;28;20051;-65
2022/04/05 14:26:57;;;;;;;5.07;3.13;;;10.60;99.90;;;;;;10290098;28;20050;-65
2022/04/05 14:32:00;;;;;;;6.05;3.08;;;10.70;99.90;;;;;;10295561;28;20054;-65
2022/04/05 14:37:02;;;;;;;8.70;2.85;;;10.70;99.90;;;;;;10292260;28;20442;-66
2022/04/05 14:42:10;;;;;;;4.75;2.28;;;10.60;99.90;;;;;;10295065;28;20050;-66
2022/04/05 14:47:12;;;;;;;7.68;2.90;;;10.50;99.90;;;;;;10294945;28;20110;-65
2022/04/05 14:52:14;;;;;;;4.95;2.00;;;10.50;99.90;;;;;;10292432;28;20050;-66
2022/04/05 14:57:15;;;;;;;5.50;2.60;;;10.70;99.90;;;;;;10290474;28;20050;-64
2022/04/05 15:02:19;;;;;;;4.75;2.30;;;10.70;99.90;;;;;;10293010;28;20061;-66
2022/04/05 15:07:21;;;;;;;4.65;2.15;;;10.80;99.90;;;;;;10297018;28;20116;-66
2022/04/05 15:12:25;;;;;;;3.50;1.77;;;10.90;99.90;;;;;;10298503;28;20046;-66
2022/04/05 15:17:26;;;;;;;4.70;1.92;;;10.90;99.90;;;;;;10295767;28;20061;-66
2022/04/05 15:22:30;;;;;;;3.20;1.65;;;10.80;99.90;;;;;;10296242;28;20054;-64
2022/04/05 15:27:32;;;;;;;4.03;1.98;;;10.80;99.90;;;;;;10292875;28;20042;-63
2022/04/05 15:32:34;;;;;;;3.78;1.90;;;10.90;99.90;;;;;;10296698;28;20524;-65
2022/04/05 15:37:36;;;;;;;4.85;2.45;;;10.90;99.90;;;;;;10298154;28;20113;-65
2022/04/05 15:42:38;;;;;;;3.17;2.00;;;10.90;99.90;;;;;;10293776;28;20061;-65
2022/04/05 15:47:44;;;;;;;3.92;2.03;;;10.90;99.90;;;;;;10291818;28;20117;-64
2022/04/05 15:52:47;;;;;;;5.15;2.28;;;10.90;99.90;;;;;;10293037;28;20544;-66
2022/04/05 15:57:49;;;;;;;3.95;2.47;;;10.80;99.90;;;;;;10295282;28;20047;-66
2022/04/05 16:02:51;;;;;;;4.85;2.45;;;10.70;99.90;;;;;;10275335;28;20042;-66
2022/04/05 16:07:53;;;;;;;5.55;2.20;;;10.70;99.90;;;;;;10292955;28;20050;-67
2022/04/05 16:12:55;;;;;;;4.43;2.13;;;10.80;99.90;;;;;;10298772;28;20509;-62
2022/04/05 16:17:57;;;;;;;5.05;2.63;;;10.80;99.90;;;;;;10295923;28;20141;-63
2022/04/05 16:23:00;;;;;;;4.53;2.95;;;10.70;99.90;;;;;;10290137;28;20509;-63
2022/04/05 16:28:02;;;;;;;8.15;3.95;;;10.50;99.90;;;;;;10297464;28;20047;-63
2022/04/05 16:33:04;;;;;;;6.13;2.55;;;10.30;99.90;;;;;;10300129;28;20117;-63
2022/04/05 16:38:06;;;;;;;4.60;2.28;;;10.20;99.90;;;;;;10294589;28;20042;-63
2022/04/05 16:43:08;;;;;;;6.03;3.15;;;10.10;99.90;;;;;;10297103;28;20374;-63
2022/04/05 16:48:09;;;;;;;8.60;3.25;;;10.10;99.90;;;;;;10298044;28;20050;-62
2022/04/05 16:53:11;;;;;;;7.45;3.58;;;9.90;99.90;;;;;;10296205;28;20109;-61
2022/04/05 16:58:13;;;;;;;10.75;3.60;;;10.00;99.90;;;;;;10295160;28;20116;-62
2022/04/05 17:03:15;;;;;;;7.57;3.00;;;9.90;99.90;;;;;;10282447;28;20055;-61
2022/04/05 17:08:19;;;;;;;7.25;3.50;;;9.90;99.90;;;;;;10297603;28;20073;-61
2022/04/05 17:13:22;;;;;;;6.00;3.67;;;9.90;99.90;;;;;;10297423;28;20046;-62
2022/04/05 17:18:24;;;;;;;7.60;3.65;;;9.80;99.90;;;;;;10291348;28;20088;-62
2022/04/05 17:23:26;;;;;;;4.38;2.45;;;9.90;99.90;;;;;;10293321;28;20050;-62
2022/04/05 17:28:49;;;;;;;7.38;3.42;;;9.80;99.90;;;;;;10280535;28;20237;-61
2022/04/05 17:33:50;;;;;;;6.15;2.88;;;9.80;99.90;;;;;;10298493;28;20763;-62
2022/04/05 17:38:52;;;;;;;7.47;3.28;;;9.80;99.90;;;;;;10292642;28;20046;-62
2022/04/05 17:43:54;;;;;;;6.95;3.17;;;9.80;99.90;;;;;;10294351;28;20046;-62
2022/04/05 17:48:56;;;;;;;6.72;3.45;;;9.70;99.90;;;;;;10297642;28;20583;-61
2022/04/05 17:53:57;;;;;;;7.60;4.32;;;9.70;99.90;;;;;;10297493;28;20128;-61
2022/04/05 17:59:00;;;;;;;10.98;3.70;;;9.70;99.90;;;;;;10294670;28;20113;-62
2022/04/05 18:04:03;;;;;;;7.30;3.22;;;9.60;99.90;;;;;;10295000;28;20050;-61
2022/04/05 18:09:05;;;;;;;10.02;4.60;;;9.60;99.90;;;;;;10288704;28;20047;-60
2022/04/05 18:14:08;;;;;;;11.38;4.82;;;9.60;99.90;;;;;;10291312;28;20049;-62
2022/04/05 18:19:09;;;;;;;5.93;3.20;;;9.50;99.90;;;;;;10293701;28;20049;-62
2022/04/05 18:24:11;;;;;;;9.90;4.00;;;9.50;99.90;;;;;;10297003;28;20100;-64
2022/04/05 18:29:13;;;;;;;9.38;4.30;;;9.60;99.90;;;;;;10295292;28;20446;-63
2022/04/05 18:34:15;;;;;;;7.40;4.00;;;9.50;99.90;;;;;;10289136;28;20046;-63
2022/04/05 18:39:18;;;;;;;8.45;3.25;;;9.60;99.90;;;;;;10299607;28;20047;-63
2022/04/05 18:44:20;;;;;;;7.05;3.65;;;9.60;99.90;;;;;;10296198;28;20054;-64
2022/04/05 18:49:22;;;;;;;6.70;3.55;;;9.70;99.90;;;;;;10294860;28;20505;-64
2022/04/05 18:54:24;;;;;;;8.35;3.92;;;9.70;99.90;;;;;;10299060;28;20528;-63
2022/04/05 18:59:25;;;;;;;6.93;3.63;;;9.70;99.90;;;;;;10289912;28;20051;-64
2022/04/05 19:04:27;;;;;;;4.65;2.45;;;9.70;99.90;;;;;;10291271;28;20199;-64
2022/04/05 19:09:29;;;;;;;8.07;3.22;;;9.80;99.90;;;;;;10284566;28;20046;-64
2022/04/05 19:14:31;;;;;;;6.47;2.95;;;9.70;99.90;;;;;;10300400;28;20081;-64
2022/04/05 19:19:33;;;;;;;6.22;2.60;;;9.80;99.90;;;;;;10296671;28;20130;-65
2022/04/05 19:24:36;;;;;;;5.00;2.58;;;9.80;99.90;;;;;;10300584;28;20106;-63
2022/04/05 19:29:37;;;;;;;5.90;2.53;;;9.80;99.90;;;;;;10298322;28;20551;-65
2022/04/05 19:34:39;;;;;;;4.90;2.38;;;9.90;99.90;;;;;;10297494;28;20050;-64
2022/04/05 19:39:42;;;;;;;5.50;2.22;;;9.90;99.90;;;;;;10287035;28;20047;-64
2022/04/05 19:44:44;;;;;;;4.15;2.03;;;9.90;99.90;;;;;;10286200;28;20050;-65
2022/04/05 19:49:45;;;;;;;5.95;2.22;;;10.00;99.90;;;;;;10292835;28;20054;-64
2022/04/05 19:54:47;;;;;;;4.30;2.20;;;10.00;99.90;;;;;;10301728;28;20735;-64
2022/04/05 19:59:49;;;;;;;3.55;1.92;;;10.00;99.90;;;;;;10302116;28;20072;-65
2022/04/05 20:04:52;;;;;;;5.45;3.20;;;10.00;99.90;;;;;;9706896;28;20106;-64
2022/04/05 20:09:54;;;;;;;6.72;3.63;;;10.00;99.90;;;;;;9657878;28;20043;-64
2022/04/05 20:14:56;;;;;;;7.97;2.78;;;10.00;99.90;;;;;;10201681;28;20067;-64
2022/04/05 20:19:58;;;;;;;7.28;2.83;;;10.00;99.90;;;;;;10289198;28;20117;-64
2022/04/05 20:25:00;;;;;;;10.68;3.67;;;10.00;99.90;;;;;;10303086;28;20081;-64
2022/04/05 20:30:03;;;;;;;7.28;3.40;;;10.00;99.90;;;;;;10296544;28;20039;-63
2022/04/05 20:35:05;;;;;;;8.27;3.70;;;10.10;99.90;;;;;;10301614;28;20068;-63
2022/04/05 20:40:08;;;;;;;12.20;4.20;;;10.00;99.90;;;;;;10304048;28;20073;-63
2022/04/05 20:45:10;;;;;;;9.30;4.70;;;10.00;99.90;;;;;;10295674;28;20122;-63
2022/04/05 20:50:12;;;;;;;8.52;4.13;;;10.00;99.90;;;;;;10298160;28;20050;-62
2022/04/05 20:55:13;;;;;;;10.02;4.90;;;9.90;99.90;;;;;;10291910;28;20124;-62
2022/04/05 21:00:15;;;;;;;10.20;4.18;;;9.90;99.90;;;;;;10291402;28;20062;-63
2022/04/05 21:05:17;;;;;;;9.63;4.15;;;10.00;99.90;;;;;;10295327;28;20050;-63
2022/04/05 21:10:19;;;;;;;7.85;3.50;;;10.00;99.90;;;;;;10292669;28;20043;-63
2022/04/05 21:15:21;;;;;;;8.70;4.15;;;10.00;99.90;;;;;;10294781;28;20050;-63
2022/04/05 21:20:24;;;;;;;8.32;4.03;;;10.00;99.90;;;;;;10294604;28;20062;-63
2022/04/05 21:25:26;;;;;;;8.55;3.80;;;10.00;99.90;;;;;;10299758;28;20432;-63
2022/04/05 21:30:29;;;;;;;6.85;3.17;;;10.00;99.90;;;;;;10298086;28;20410;-64
2022/04/05 21:35:31;;;;;;;10.10;4.05;;;10.00;99.90;;;;;;10292812;28;20061;-64
2022/04/05 21:40:33;;;;;;;7.97;2.95;;;10.00;99.90;;;;;;10294045;28;20053;-63
2022/04/05 21:45:34;;;;;;;8.20;3.38;;;10.00;99.90;;;;;;10296053;28;20116;-62
2022/04/05 21:50:36;;;;;;;8.60;3.67;;;10.10;99.90;;;;;;10292098;28;20082;-62
2022/04/05 21:55:38;;;;;;;9.63;4.00;;;10.00;99.90;;;;;;10298076;28;20113;-62
2022/04/05 22:00:46;;;;;;;7.57;3.80;;;10.10;99.90;;;;;;10290548;28;20050;-62
2022/04/05 22:05:48;;;;;;;13.10;4.32;;;10.10;99.90;;;;;;10290974;28;20058;-62
2022/04/05 22:10:49;;;;;;;7.88;3.53;;;10.10;99.90;;;;;;10295109;28;20038;-62
2022/04/05 22:15:51;;;;;;;7.55;3.65;;;10.20;99.90;;;;;;10296757;28;20050;-62
2022/04/05 22:20:55;;;;;;;7.85;3.20;;;10.20;99.90;;;;;;10293112;28;20721;-62
2022/04/05 22:25:56;;;;;;;10.10;4.40;;;10.20;99.90;;;;;;10291191;28;20054;-64
2022/04/05 22:30:58;;;;;;;8.60;3.78;;;10.20;99.90;;;;;;10296365;28;20057;-64
2022/04/05 22:36:00;;;;;;;6.07;2.50;;;10.10;99.90;;;;;;10297568;28;20038;-64
2022/04/05 22:41:02;;;;;;;7.05;3.20;;;10.10;99.90;;;;;;10292642;28;20093;-64
2022/04/05 22:46:03;;;;;;;8.32;3.78;;;10.10;99.90;;;;;;10294738;28;20039;-64
2022/04/05 22:51:05;;;;;;;5.65;2.55;;;10.10;99.90;;;;;;10297144;28;20054;-65
2022/04/05 22:56:07;;;;;;;5.60;2.38;;;10.10;99.90;;;;;;10289730;28;20489;-64
2022/04/05 23:01:10;;;;;;;7.20;2.20;;;10.10;99.90;;;;;;10293467;28;20057;-64
2022/04/05 23:06:11;;;;;;;8.27;2.60;;;10.10;99.90;;;;;;10288536;28;20081;-64
2022/04/05 23:11:13;;;;;;;6.57;2.58;;;10.10;99.90;;;;;;10290192;28;20113;-63
2022/04/05 23:16:15;;;;;;;4.95;1.77;;;10.10;99.90;;;;;;10291840;28;20046;-63
2022/04/05 23:21:18;;;;;;;5.18;2.13;;;10.00;99.90;;;;;;10268378;28;20175;-64
2022/04/05 23:26:20;;;;;;;3.75;1.80;;;10.00;99.90;;;;;;10294949;28;20058;-63
2022/04/05 23:31:21;;;;;;;4.80;2.13;;;10.00;99.90;;;;;;10293761;28;20445;-64
2022/04/05 23:36:23;;;;;;;4.40;1.88;;;10.10;99.90;;;;;;10296845;28;20070;-64
2022/04/05 23:41:25;;;;;;;5.22;2.00;;;10.10;99.90;;;;;;10297406;28;20071;-63
2022/04/05 23:46:26;;;;;;;7.60;2.85;;;10.10;99.90;;;;;;10294060;28;20054;-64
2022/04/05 23:51:28;;;;;;;5.28;1.80;;;10.10;99.90;;;;;;10303693;28;20129;-64
2022/04/05 23:56:30;;;;;;;5.65;2.40;;;10.20;99.90;;;;;;10304836;28;20456;-64
